createdAt,value
2017-05-27T00:00:09.470Z,46.00
2017-05-27T00:02:36.845Z,46.40
2017-05-27T00:05:04.661Z,46.70
2017-05-27T00:07:32.065Z,46.70
2017-05-27T00:09:59.373Z,46.00
2017-05-27T00:12:27.836Z,46.40
2017-05-27T00:14:55.209Z,46.80
2017-05-27T00:17:22.548Z,47.90
2017-05-27T00:19:49.848Z,47.60
2017-05-27T00:22:17.202Z,47.00
2017-05-27T00:24:44.436Z,47.00
2017-05-27T00:27:11.753Z,47.60
2017-05-27T00:29:39.111Z,47.50
2017-05-27T00:32:06.617Z,48.00
2017-05-27T00:34:33.849Z,47.30
2017-05-27T00:37:01.146Z,47.60
2017-05-27T00:39:28.465Z,47.20
2017-05-27T00:41:55.928Z,47.80
2017-05-27T00:44:23.301Z,49.00
2017-05-27T00:46:51.609Z,48.90
2017-05-27T00:49:18.941Z,48.60
2017-05-27T00:51:46.277Z,49.00
2017-05-27T00:54:13.668Z,49.00
2017-05-27T00:56:41.170Z,48.40
2017-05-27T00:59:08.461Z,49.40
2017-05-27T01:01:35.697Z,49.70
2017-05-27T01:04:02.996Z,48.40
2017-05-27T01:06:30.454Z,48.80
2017-05-27T01:08:57.799Z,48.70
2017-05-27T01:11:24.991Z,48.40
2017-05-27T01:13:52.303Z,49.70
2017-05-27T01:16:19.637Z,49.60
2017-05-27T01:18:47.491Z,49.50
2017-05-27T01:21:14.846Z,49.60
2017-05-27T01:23:42.217Z,49.40
2017-05-27T01:26:09.645Z,49.70
2017-05-27T01:28:37.020Z,49.50
2017-05-27T01:31:04.325Z,49.40
2017-05-27T01:33:31.729Z,49.50
2017-05-27T01:35:59.060Z,49.40
2017-05-27T01:38:26.397Z,49.40
2017-05-27T01:40:53.805Z,49.40
2017-05-27T01:43:21.234Z,49.70
2017-05-27T01:45:48.657Z,50.40
2017-05-27T01:48:16.002Z,50.60
2017-05-27T01:50:43.417Z,50.40
2017-05-27T01:53:10.728Z,50.60
2017-05-27T01:55:38.001Z,51.30
2017-05-27T01:58:05.349Z,50.60
2017-05-27T02:00:32.722Z,50.50
2017-05-27T02:03:00.052Z,49.90
2017-05-27T02:05:27.505Z,50.30
2017-05-27T02:07:55.001Z,50.60
2017-05-27T02:10:22.349Z,51.10
2017-05-27T02:12:49.616Z,49.90
2017-05-27T02:15:16.890Z,50.40
2017-05-27T02:17:44.434Z,50.40
2017-05-27T02:20:11.873Z,50.80
2017-05-27T02:22:39.422Z,50.90
2017-05-27T02:25:06.651Z,50.90
2017-05-27T02:27:34.038Z,51.00
2017-05-27T02:30:01.394Z,51.50
2017-05-27T02:32:28.721Z,52.20
2017-05-27T02:34:56.070Z,51.40
2017-05-27T02:37:23.254Z,51.70
2017-05-27T02:39:50.576Z,52.20
2017-05-27T02:42:17.890Z,51.20
2017-05-27T02:44:45.248Z,51.70
2017-05-27T02:47:12.597Z,51.70
2017-05-27T02:49:39.201Z,51.70
2017-05-27T02:52:06.573Z,51.90
2017-05-27T02:54:34.080Z,51.80
2017-05-27T02:57:01.511Z,51.90
2017-05-27T02:59:28.873Z,52.00
2017-05-27T03:01:56.217Z,51.40
2017-05-27T03:04:23.434Z,51.50
2017-05-27T03:09:24.828Z,51.80
2017-05-27T03:11:52.184Z,51.60
2017-05-27T03:14:19.532Z,51.50
2017-05-27T03:16:46.876Z,51.90
2017-05-27T03:19:14.101Z,52.20
2017-05-27T03:21:41.435Z,51.70
2017-05-27T03:24:08.769Z,52.20
2017-05-27T03:26:36.101Z,52.10
2017-05-27T03:29:02.621Z,52.10
2017-05-27T03:31:29.945Z,52.30
2017-05-27T03:33:57.401Z,52.20
2017-05-27T03:36:24.708Z,53.20
2017-05-27T03:38:52.074Z,52.60
2017-05-27T03:41:19.432Z,52.20
2017-05-27T03:43:46.823Z,52.30
2017-05-27T03:46:14.269Z,52.50
2017-05-27T03:48:41.635Z,53.10
2017-05-27T03:51:08.978Z,53.10
2017-05-27T03:53:36.337Z,53.50
2017-05-27T03:56:03.701Z,53.10
2017-05-27T03:58:31.041Z,53.50
2017-05-27T04:00:58.244Z,53.50
2017-05-27T04:03:25.577Z,53.10
2017-05-27T04:05:53.250Z,54.00
2017-05-27T04:08:20.587Z,53.10
2017-05-27T04:10:48.199Z,53.70
2017-05-27T04:13:15.533Z,53.70
2017-05-27T04:15:42.943Z,53.40
2017-05-27T04:18:10.311Z,53.30
2017-05-27T04:20:37.624Z,53.40
2017-05-27T04:23:04.980Z,54.20
2017-05-27T04:25:32.227Z,54.00
2017-05-27T04:27:59.661Z,54.20
2017-05-27T04:30:27.048Z,54.00
2017-05-27T04:32:54.509Z,54.00
2017-05-27T04:35:21.798Z,54.20
2017-05-27T04:37:49.132Z,54.10
2017-05-27T04:40:16.452Z,54.10
2017-05-27T04:42:43.692Z,53.90
2017-05-27T04:45:11.048Z,53.80
2017-05-27T04:47:38.076Z,53.80
2017-05-27T04:50:05.409Z,54.20
2017-05-27T04:52:32.777Z,54.00
2017-05-27T04:55:00.101Z,54.00
2017-05-27T04:57:27.419Z,53.80
2017-05-27T04:59:54.733Z,53.50
2017-05-27T05:02:22.087Z,53.50
2017-05-27T05:04:49.437Z,53.70
2017-05-27T05:07:16.788Z,54.30
2017-05-27T05:09:44.114Z,53.90
2017-05-27T05:12:11.492Z,54.00
2017-05-27T05:14:38.732Z,53.20
2017-05-27T05:17:06.005Z,53.50
2017-05-27T05:19:33.321Z,52.60
2017-05-27T05:22:00.664Z,53.10
2017-05-27T05:24:28.202Z,52.40
2017-05-27T05:26:55.517Z,52.50
2017-05-27T05:29:22.845Z,52.70
2017-05-27T05:31:50.301Z,52.10
2017-05-27T05:34:17.654Z,51.80
2017-05-27T05:36:44.964Z,51.00
2017-05-27T05:39:12.293Z,51.50
2017-05-27T05:41:39.557Z,50.70
2017-05-27T05:44:06.954Z,49.40
2017-05-27T05:46:34.272Z,49.50
2017-05-27T05:49:01.740Z,49.50
2017-05-27T05:51:29.084Z,48.00
2017-05-27T05:53:56.354Z,47.70
2017-05-27T05:56:23.725Z,48.00
2017-05-27T05:58:52.708Z,46.90
2017-05-27T06:01:20.029Z,47.20
2017-05-27T06:03:47.347Z,46.50
2017-05-27T06:06:14.700Z,46.50
2017-05-27T06:08:42.049Z,45.70
2017-05-27T06:11:13.201Z,45.00
2017-05-27T06:13:40.496Z,45.20
2017-05-27T06:16:07.824Z,44.50
2017-05-27T06:18:35.151Z,45.00
2017-05-27T06:21:02.509Z,44.60
2017-05-27T06:23:29.769Z,44.00
2017-05-27T06:25:56.977Z,44.40
2017-05-27T06:28:24.710Z,43.40
2017-05-27T06:30:52.018Z,43.60
2017-05-27T06:33:20.001Z,42.60
2017-05-27T06:35:47.313Z,43.30
2017-05-27T06:38:14.654Z,42.50
2017-05-27T06:40:42.025Z,42.50
2017-05-27T06:43:08.645Z,42.50
2017-05-27T06:45:36.065Z,41.70
2017-05-27T06:48:03.442Z,41.90
2017-05-27T06:50:30.955Z,41.90
2017-05-27T06:52:58.320Z,42.00
2017-05-27T06:55:25.728Z,42.10
2017-05-27T06:57:53.152Z,41.20
2017-05-27T07:00:20.368Z,40.80
2017-05-27T07:02:47.702Z,41.20
2017-05-27T07:05:15.023Z,40.80
2017-05-27T07:07:42.366Z,39.90
2017-05-27T07:10:09.956Z,40.00
2017-05-27T07:12:37.170Z,40.10
2017-05-27T07:15:04.497Z,39.30
2017-05-27T07:17:31.872Z,40.00
2017-05-27T07:19:59.241Z,39.40
2017-05-27T07:22:26.578Z,39.20
2017-05-27T07:24:53.934Z,39.30
2017-05-27T07:27:20.522Z,39.40
2017-05-27T07:29:47.821Z,38.60
2017-05-27T07:32:15.076Z,37.50
2017-05-27T07:34:42.527Z,38.30
2017-05-27T07:37:10.014Z,38.00
2017-05-27T07:39:37.318Z,38.10
2017-05-27T07:42:04.673Z,37.00
2017-05-27T07:44:31.901Z,37.40
2017-05-27T07:46:59.213Z,35.40
2017-05-27T07:49:26.526Z,37.30
2017-05-27T07:51:53.862Z,35.90
2017-05-27T07:54:21.102Z,35.60
2017-05-27T07:56:48.461Z,35.30
2017-05-27T07:59:15.153Z,35.20
2017-05-27T08:01:42.585Z,34.10
2017-05-27T08:04:10.176Z,34.00
2017-05-27T08:06:37.626Z,33.60
2017-05-27T08:09:05.089Z,32.40
2017-05-27T08:11:32.873Z,29.40
2017-05-27T08:14:00.669Z,27.40
2017-05-27T08:16:28.299Z,26.50
2017-05-27T08:18:55.677Z,23.90
2017-05-27T08:21:22.961Z,22.60
2017-05-27T08:23:50.344Z,21.40
2017-05-27T08:26:17.575Z,20.20
2017-05-27T08:28:50.482Z,20.10
2017-05-27T08:31:17.795Z,20.00
2017-05-27T08:34:02.025Z,19.50
2017-05-27T08:36:29.978Z,19.10
2017-05-27T08:38:57.300Z,18.70
2017-05-27T08:41:24.485Z,18.60
2017-05-27T08:43:51.734Z,18.90
2017-05-27T08:46:19.073Z,17.80
2017-05-27T08:51:20.440Z,19.10
2017-05-27T08:53:47.883Z,20.00
2017-05-27T08:56:15.159Z,21.10
2017-05-27T08:58:42.500Z,23.20
2017-05-27T09:01:16.164Z,25.20
2017-05-27T09:03:43.457Z,24.40
2017-05-27T09:06:10.744Z,24.90
2017-05-27T09:08:38.086Z,26.40
2017-05-27T09:11:05.421Z,26.70
2017-05-27T09:13:38.729Z,25.90
2017-05-27T09:16:05.800Z,27.60
2017-05-27T09:18:33.159Z,26.40
2017-05-27T09:21:00.456Z,26.70
2017-05-27T09:23:27.796Z,26.50
2017-05-27T09:25:55.264Z,26.90
2017-05-27T09:28:22.581Z,26.60
2017-05-27T09:30:49.893Z,26.70
2017-05-27T09:33:17.168Z,27.60
2017-05-27T09:35:44.355Z,26.20
2017-05-27T09:38:11.686Z,25.70
2017-05-27T09:40:39.169Z,27.10
2017-05-27T09:43:06.748Z,25.90
2017-05-27T09:45:34.200Z,26.40
2017-05-27T09:48:01.513Z,26.20
2017-05-27T09:50:31.012Z,25.80
2017-05-27T09:52:58.355Z,25.70
2017-05-27T09:55:25.694Z,26.10
2017-05-27T09:57:53.017Z,25.60
2017-05-27T10:00:20.327Z,25.80
2017-05-27T10:02:47.644Z,26.10
2017-05-27T10:05:14.950Z,25.80
2017-05-27T10:07:42.124Z,25.40
2017-05-27T10:10:11.012Z,25.80
2017-05-27T10:12:45.118Z,25.20
2017-05-27T10:15:12.413Z,25.40
2017-05-27T10:17:39.731Z,25.10
2017-05-27T10:20:11.144Z,26.50
2017-05-27T10:22:38.437Z,26.00
2017-05-27T10:25:05.842Z,24.90
2017-05-27T10:27:33.160Z,26.20
2017-05-27T10:30:00.357Z,26.50
2017-05-27T10:32:27.568Z,24.80
2017-05-27T10:34:54.833Z,27.10
2017-05-27T10:37:22.380Z,24.50
2017-05-27T10:39:49.724Z,24.70
2017-05-27T10:42:17.061Z,25.40
2017-05-27T10:44:44.404Z,25.20
2017-05-27T10:47:11.829Z,25.90
2017-05-27T10:49:39.113Z,25.70
2017-05-27T10:52:06.287Z,24.80
2017-05-27T10:54:33.720Z,26.30
2017-05-27T10:57:01.092Z,24.20
2017-05-27T10:59:28.484Z,24.20
2017-05-27T11:01:55.670Z,25.10
2017-05-27T11:04:23.001Z,24.90
2017-05-27T11:06:51.090Z,24.70
2017-05-27T11:09:18.432Z,24.50
2017-05-27T11:11:45.700Z,26.00
2017-05-27T11:14:13.028Z,26.20
2017-05-27T11:16:40.321Z,24.70
2017-05-27T11:19:12.805Z,24.30
2017-05-27T11:21:40.133Z,24.30
2017-05-27T11:24:07.379Z,24.40
2017-05-27T11:26:34.701Z,24.30
2017-05-27T11:29:02.002Z,24.70
2017-05-27T11:31:29.326Z,24.30
2017-05-27T11:33:57.074Z,24.30
2017-05-27T11:36:23.561Z,24.90
2017-05-27T11:38:50.886Z,26.00
2017-05-27T11:41:18.208Z,24.40
2017-05-27T11:43:45.417Z,24.00
2017-05-27T11:46:12.736Z,24.40
2017-05-27T11:48:39.985Z,24.10
2017-05-27T11:51:07.301Z,24.40
2017-05-27T11:53:34.618Z,24.50
2017-05-27T11:56:08.925Z,23.80
2017-05-27T11:58:36.258Z,24.50
2017-05-27T12:01:05.374Z,23.40
2017-05-27T12:03:32.753Z,24.40
2017-05-27T12:06:00.089Z,24.60
2017-05-27T12:08:27.454Z,24.70
2017-05-27T12:10:54.753Z,23.70
2017-05-27T12:13:28.739Z,23.50
2017-05-27T12:15:56.089Z,24.30
2017-05-27T12:18:23.429Z,23.40
2017-05-27T12:20:50.713Z,23.90
2017-05-27T12:23:18.046Z,23.10
2017-05-27T12:25:45.405Z,22.70
2017-05-27T12:28:12.745Z,23.90
2017-05-27T12:30:40.061Z,23.60
2017-05-27T12:33:07.393Z,24.00
2017-05-27T12:35:34.757Z,22.70
2017-05-27T12:38:02.069Z,24.90
2017-05-27T12:40:28.572Z,24.90
2017-05-27T12:42:55.148Z,24.00
2017-05-27T12:45:22.453Z,23.60
2017-05-27T12:47:49.783Z,23.50
2017-05-27T12:50:17.107Z,23.20
2017-05-27T12:52:44.433Z,23.10
2017-05-27T12:55:11.725Z,23.90
2017-05-27T12:57:39.048Z,23.40
2017-05-27T13:00:06.364Z,23.50
2017-05-27T13:02:33.580Z,22.70
2017-05-27T13:05:00.877Z,23.50
2017-05-27T13:07:28.277Z,24.20
2017-05-27T13:09:55.596Z,22.70
2017-05-27T13:12:22.950Z,20.90
2017-05-27T13:14:50.183Z,21.90
2017-05-27T13:17:17.493Z,21.60
2017-05-27T13:19:44.832Z,20.50
2017-05-27T13:22:12.044Z,21.60
2017-05-27T13:24:39.332Z,21.10
2017-05-27T13:27:06.649Z,20.50
2017-05-27T13:29:33.972Z,20.10
2017-05-27T13:32:01.273Z,20.40
2017-05-27T13:34:28.562Z,20.30
2017-05-27T13:36:55.912Z,20.40
2017-05-27T13:39:23.228Z,20.30
2017-05-27T13:41:50.574Z,20.10
2017-05-27T13:44:17.914Z,19.30
2017-05-27T13:46:45.244Z,20.40
2017-05-27T13:49:12.561Z,19.80
2017-05-27T13:51:39.948Z,20.60
2017-05-27T13:54:07.279Z,20.00
2017-05-27T13:56:34.519Z,20.00
2017-05-27T13:59:01.822Z,21.40
2017-05-27T14:01:29.469Z,20.80
2017-05-27T14:03:56.791Z,21.40
2017-05-27T14:06:24.125Z,20.70
2017-05-27T14:08:51.564Z,20.60
2017-05-27T14:11:18.903Z,22.30
2017-05-27T14:13:46.206Z,20.50
2017-05-27T14:16:12.773Z,20.50
2017-05-27T14:18:40.073Z,20.20
2017-05-27T14:21:07.381Z,21.20
2017-05-27T14:23:34.735Z,20.10
2017-05-27T14:26:02.040Z,21.50
2017-05-27T14:28:29.351Z,20.40
2017-05-27T14:30:56.697Z,21.40
2017-05-27T14:33:24.013Z,20.40
2017-05-27T14:35:51.378Z,20.30
2017-05-27T14:38:27.939Z,20.40
2017-05-27T14:40:56.365Z,20.90
2017-05-27T14:43:23.706Z,20.60
2017-05-27T14:45:50.281Z,20.60
2017-05-27T14:48:17.806Z,20.90
2017-05-27T14:50:45.040Z,20.40
2017-05-27T14:53:12.337Z,21.10
2017-05-27T14:55:39.717Z,20.50
2017-05-27T14:58:07.072Z,21.90
2017-05-27T15:00:34.395Z,22.90
2017-05-27T15:03:01.842Z,21.60
2017-05-27T15:05:29.200Z,23.40
2017-05-27T15:07:56.401Z,21.40
2017-05-27T15:10:23.572Z,20.50
2017-05-27T15:12:50.909Z,19.70
2017-05-27T15:15:18.467Z,21.00
2017-05-27T15:17:45.764Z,18.30
2017-05-27T15:20:13.100Z,20.40
2017-05-27T15:22:40.421Z,20.50
2017-05-27T15:25:07.793Z,19.80
2017-05-27T15:27:35.139Z,20.80
2017-05-27T15:30:02.515Z,20.50
2017-05-27T15:32:29.846Z,19.80
2017-05-27T15:34:57.145Z,20.70
2017-05-27T15:37:24.461Z,20.60
2017-05-27T15:39:51.835Z,19.20
2017-05-27T15:42:19.220Z,19.90
2017-05-27T15:44:46.418Z,19.40
2017-05-27T15:47:13.781Z,20.20
2017-05-27T15:49:41.133Z,21.10
2017-05-27T15:52:08.467Z,21.20
2017-05-27T15:54:35.719Z,21.00
2017-05-27T15:57:02.970Z,21.10
2017-05-27T15:59:30.181Z,21.10
2017-05-27T16:01:57.534Z,21.60
2017-05-27T16:04:25.087Z,22.10
2017-05-27T16:06:52.318Z,21.10
2017-05-27T16:09:19.675Z,21.40
2017-05-27T16:11:46.973Z,20.20
2017-05-27T16:14:14.308Z,21.00
2017-05-27T16:16:41.605Z,20.70
2017-05-27T16:19:08.977Z,18.40
2017-05-27T16:21:36.282Z,19.90
2017-05-27T16:24:03.634Z,20.10
2017-05-27T16:26:30.987Z,19.30
2017-05-27T16:28:58.297Z,19.90
2017-05-27T16:31:25.846Z,19.40
2017-05-27T16:33:53.161Z,19.70
2017-05-27T16:36:19.611Z,19.70
2017-05-27T16:38:46.934Z,21.10
2017-05-27T16:41:14.122Z,20.60
2017-05-27T16:43:41.353Z,20.40
2017-05-27T16:46:08.661Z,19.50
2017-05-27T16:48:36.008Z,20.30
2017-05-27T16:51:03.309Z,21.30
2017-05-27T16:53:30.656Z,20.40
2017-05-27T16:55:57.970Z,19.40
2017-05-27T16:58:25.289Z,20.10
2017-05-27T17:00:54.986Z,19.40
2017-05-27T17:03:22.297Z,21.30
2017-05-27T17:05:49.621Z,19.90
2017-05-27T17:08:16.985Z,19.90
2017-05-27T17:10:44.273Z,21.80
2017-05-27T17:13:11.600Z,20.60
2017-05-27T17:15:38.908Z,20.90
2017-05-27T17:18:06.220Z,21.40
2017-05-27T17:20:33.606Z,21.30
2017-05-27T17:23:00.705Z,21.90
2017-05-27T17:25:28.058Z,21.60
2017-05-27T17:27:55.286Z,21.90
2017-05-27T17:30:22.671Z,22.50
2017-05-27T17:32:49.962Z,21.90
2017-05-27T17:35:17.257Z,23.20
2017-05-27T17:37:44.537Z,23.90
2017-05-27T17:40:11.954Z,22.70
2017-05-27T17:42:39.259Z,22.40
2017-05-27T17:45:06.502Z,22.20
2017-05-27T17:47:33.824Z,23.20
2017-05-27T17:50:01.036Z,22.90
2017-05-27T17:52:28.413Z,23.80
2017-05-27T17:54:55.883Z,23.70
2017-05-27T17:57:23.284Z,23.10
2017-05-27T17:59:50.552Z,23.60
2017-05-27T18:02:17.878Z,23.20
2017-05-27T18:04:45.197Z,23.20
2017-05-27T18:07:12.496Z,24.10
2017-05-27T18:09:39.057Z,24.20
2017-05-27T18:12:06.369Z,24.60
2017-05-27T18:14:33.837Z,23.70
2017-05-27T18:17:01.238Z,25.80
2017-05-27T18:19:28.610Z,25.60
2017-05-27T18:21:55.870Z,25.70
2017-05-27T18:24:23.092Z,24.80
2017-05-27T18:26:50.429Z,25.20
2017-05-27T18:29:17.765Z,25.40
2017-05-27T18:31:45.149Z,25.10
2017-05-27T18:34:12.445Z,27.30
2017-05-27T18:36:39.809Z,27.20
2017-05-27T18:39:07.165Z,27.50
2017-05-27T18:41:34.565Z,27.70
2017-05-27T18:44:01.769Z,28.80
2017-05-27T18:46:30.010Z,28.90
2017-05-27T18:48:57.313Z,28.60
2017-05-27T18:51:24.638Z,29.90
2017-05-27T18:53:52.022Z,29.30
2017-05-27T18:56:19.309Z,29.00
2017-05-27T18:58:46.629Z,30.40
2017-05-27T19:01:13.849Z,30.60
2017-05-27T19:03:41.137Z,30.70
2017-05-27T19:06:08.357Z,30.80
2017-05-27T19:08:35.757Z,31.00
2017-05-27T19:11:03.069Z,30.90
2017-05-27T19:13:30.408Z,31.60
2017-05-27T19:16:12.427Z,32.60
2017-05-27T19:18:39.770Z,32.40
2017-05-27T19:21:06.932Z,32.40
2017-05-27T19:23:34.309Z,32.30
2017-05-27T19:26:01.688Z,32.30
2017-05-27T19:28:29.655Z,32.30
2017-05-27T19:30:56.978Z,33.30
2017-05-27T19:33:24.337Z,32.40
2017-05-27T19:35:51.805Z,33.10
2017-05-27T19:38:19.234Z,33.50
2017-05-27T19:40:46.728Z,34.60
2017-05-27T19:43:14.065Z,34.90
2017-05-27T19:45:41.542Z,35.00
2017-05-27T19:48:08.884Z,35.30
2017-05-27T19:50:36.166Z,35.40
2017-05-27T19:53:03.694Z,34.90
2017-05-27T19:55:31.005Z,36.00
2017-05-27T19:57:58.481Z,35.10
2017-05-27T20:00:25.975Z,35.90
2017-05-27T20:02:53.320Z,32.00
2017-05-27T20:05:20.676Z,33.80
2017-05-27T20:07:48.143Z,34.00
2017-05-27T20:10:15.553Z,34.60
2017-05-27T20:12:43.097Z,34.60
2017-05-27T20:15:11.597Z,35.70
2017-05-27T20:17:38.842Z,36.40
2017-05-27T20:20:06.145Z,35.40
2017-05-27T20:22:33.449Z,36.10
2017-05-27T20:25:00.748Z,35.90
2017-05-27T20:27:28.014Z,35.00
2017-05-27T20:29:55.337Z,35.00
2017-05-27T20:32:22.665Z,35.50
2017-05-27T20:37:24.042Z,36.10
2017-05-27T20:39:51.369Z,36.90
2017-05-27T20:42:18.601Z,36.40
2017-05-27T20:44:46.125Z,36.80
2017-05-27T20:47:13.439Z,35.10
2017-05-27T20:49:40.748Z,34.60
2017-05-27T20:52:08.057Z,35.50
2017-05-27T20:54:35.332Z,35.50
2017-05-27T20:57:02.774Z,35.20
2017-05-27T20:59:30.181Z,34.80
2017-05-27T21:01:56.819Z,34.90
2017-05-27T21:04:24.038Z,35.10
2017-05-27T21:06:51.427Z,35.30
2017-05-27T21:09:18.681Z,35.90
2017-05-27T21:11:45.977Z,36.00
2017-05-27T21:14:13.294Z,35.30
2017-05-27T21:16:40.685Z,35.20
2017-05-27T21:19:08.113Z,35.10
2017-05-27T21:21:35.497Z,35.40
2017-05-27T21:24:02.948Z,36.90
2017-05-27T21:26:30.227Z,36.20
2017-05-27T21:28:57.617Z,36.20
2017-05-27T21:31:25.049Z,36.10
2017-05-27T21:33:52.143Z,35.00
2017-05-27T21:36:19.473Z,36.20
2017-05-27T21:38:46.587Z,35.70
2017-05-27T21:41:13.708Z,35.60
2017-05-27T21:43:41.289Z,34.90
2017-05-27T21:46:09.817Z,35.00
2017-05-27T21:48:37.108Z,35.70
2017-05-27T21:51:03.620Z,35.30
2017-05-27T21:53:30.786Z,36.20
2017-05-27T21:55:58.037Z,35.60
2017-05-27T21:58:25.148Z,35.40
2017-05-27T22:00:52.294Z,35.90
2017-05-27T22:03:19.377Z,34.90
2017-05-27T22:05:46.477Z,35.20
2017-05-27T22:08:13.541Z,34.80
2017-05-27T22:10:40.612Z,34.60
2017-05-27T22:13:07.764Z,36.00
2017-05-27T22:15:34.850Z,35.00
2017-05-27T22:18:02.804Z,35.20
2017-05-27T22:20:29.936Z,36.40
2017-05-27T22:22:57.108Z,35.10
2017-05-27T22:25:24.201Z,35.80
2017-05-27T22:27:51.274Z,35.90
2017-05-27T22:30:18.642Z,36.00
2017-05-27T22:32:45.841Z,36.40
2017-05-27T22:35:12.969Z,35.70
2017-05-27T22:37:40.134Z,35.40
2017-05-27T22:40:07.228Z,36.10
2017-05-27T22:42:34.302Z,35.60
2017-05-27T22:45:01.431Z,35.90
2017-05-27T22:47:28.509Z,36.00
2017-05-27T22:49:55.572Z,36.10
2017-05-27T22:52:22.642Z,36.10
2017-05-27T22:54:49.707Z,36.50
2017-05-27T22:57:16.041Z,36.50
2017-05-27T22:59:43.190Z,35.60
2017-05-27T23:02:10.285Z,37.00
2017-05-27T23:04:37.405Z,36.20
2017-05-27T23:07:04.654Z,36.80
2017-05-27T23:09:31.849Z,36.30
2017-05-27T23:11:58.944Z,36.80
2017-05-27T23:14:26.020Z,35.90
2017-05-27T23:16:53.097Z,35.70
2017-05-27T23:19:20.221Z,35.70
2017-05-27T23:21:47.344Z,37.10
2017-05-27T23:24:14.430Z,36.00
2017-05-27T23:26:41.853Z,36.40
2017-05-27T23:29:08.952Z,35.90
2017-05-27T23:31:35.297Z,35.90
2017-05-27T23:34:02.400Z,36.90
2017-05-27T23:36:29.644Z,36.80
2017-05-27T23:38:56.705Z,36.20
2017-05-27T23:41:23.873Z,36.20
2017-05-27T23:43:50.949Z,36.20
2017-05-27T23:46:18.013Z,37.00
2017-05-27T23:48:45.081Z,36.40
2017-05-27T23:51:11.421Z,36.40
2017-05-27T23:53:38.517Z,36.10
2017-05-27T23:58:39.288Z,36.20
